Rio, Wisconsin
Current Conditions -  °F | °C
As of 12:30 PM on Thursday 27 Nov 2014 (Local Time) from KMSN Reporting Station
Scattered Clouds Scattered Clouds  
Wind Chill:   Ceiling: Unl
Heat Index: 18°   Visibility: 10mi
Dew Point:   Wind: 7mph
Humidity: 65%   Direction: 300°WNW
Pressure: 30.37"   Gusts: NA
Location:  43.45°N, 89.24°W
Report Text: KMSN 271830Z 30006KT 10SM SCT015 M08/M13 A3037 RMK AO2 T10781133
Loading
Personal Weather Stations






























Interactive Weather Map New forecast layout! Learn more

10-Day Weather Forecast

Advertisements
Track Severe Weather on mobile